createdAt,value
2018-11-14T00:00:15.254Z,5.10
2018-11-14T00:00:54.264Z,5.20
2018-11-14T00:01:54.285Z,5.30
2018-11-14T00:02:54.282Z,5.80
2018-11-14T00:03:54.334Z,5.40
2018-11-14T00:04:54.334Z,5.20
2018-11-14T00:06:15.351Z,5.30
2018-11-14T00:06:54.380Z,5.50
2018-11-14T00:07:54.407Z,6.00
2018-11-14T00:08:54.484Z,5.20
2018-11-14T00:09:54.438Z,5.40
2018-11-14T00:10:54.511Z,5.30
2018-11-14T00:12:15.474Z,5.60
2018-11-14T00:12:54.509Z,5.90
2018-11-14T00:13:54.516Z,5.60
2018-11-14T00:14:54.532Z,5.30
2018-11-14T00:15:54.532Z,5.60
2018-11-14T00:16:54.545Z,5.30
2018-11-14T00:18:15.609Z,5.30
2018-11-14T00:18:54.581Z,5.50
2018-11-14T00:19:54.959Z,5.50
2018-11-14T00:20:54.679Z,5.30
2018-11-14T00:21:54.691Z,5.50
2018-11-14T00:22:54.739Z,4.60
2018-11-14T00:24:15.696Z,6.10
2018-11-14T00:24:55.008Z,5.20
2018-11-14T00:25:54.728Z,5.60
2018-11-14T00:26:54.751Z,5.10
2018-11-14T00:27:54.830Z,5.10
2018-11-14T00:28:54.774Z,5.20
2018-11-14T00:30:15.833Z,5.30
2018-11-14T00:30:54.823Z,5.30
2018-11-14T00:31:54.857Z,4.90
2018-11-14T00:32:54.874Z,5.30
2018-11-14T00:33:54.891Z,4.90
2018-11-14T00:34:54.956Z,5.10
2018-11-14T00:36:15.905Z,5.40
2018-11-14T00:36:54.981Z,5.80
2018-11-14T00:37:54.938Z,5.50
2018-11-14T00:38:54.956Z,5.40
2018-11-14T00:39:54.976Z,5.80
2018-11-14T00:40:55.006Z,5.70
2018-11-14T00:42:16.055Z,5.70
2018-11-14T00:42:55.017Z,5.90
2018-11-14T00:43:55.097Z,5.60
2018-11-14T00:44:55.060Z,5.50
2018-11-14T00:45:55.075Z,5.70
2018-11-14T00:46:55.111Z,5.50
2018-11-14T00:48:16.133Z,6.40
2018-11-14T00:48:55.146Z,5.70
2018-11-14T00:49:55.159Z,6.30
2018-11-14T00:50:55.178Z,5.60
2018-11-14T00:51:55.200Z,5.90
2018-11-14T00:52:55.212Z,6.10
2018-11-14T00:54:16.265Z,5.80
2018-11-14T00:54:55.357Z,5.60
2018-11-14T00:55:55.305Z,5.80
2018-11-14T00:56:55.347Z,6.00
2018-11-14T00:57:55.316Z,6.20
2018-11-14T00:58:55.327Z,6.30
2018-11-14T01:00:16.450Z,6.20
2018-11-14T01:00:55.356Z,5.90
2018-11-14T01:01:55.394Z,6.00
2018-11-14T01:02:55.401Z,5.80
2018-11-14T01:03:55.430Z,5.80
2018-11-14T01:04:55.433Z,5.60
2018-11-14T01:06:16.504Z,6.00
2018-11-14T01:06:55.586Z,6.00
2018-11-14T01:07:55.562Z,5.20
2018-11-14T01:08:55.513Z,5.70
2018-11-14T01:09:55.575Z,5.80
2018-11-14T01:10:55.608Z,5.90
2018-11-14T01:12:16.568Z,6.10
2018-11-14T01:12:55.616Z,5.70
2018-11-14T01:13:55.587Z,5.70
2018-11-14T01:14:55.688Z,5.70
2018-11-14T01:15:55.724Z,5.40
2018-11-14T01:16:55.705Z,5.90
2018-11-14T01:18:16.692Z,6.30
2018-11-14T01:18:55.726Z,5.80
2018-11-14T01:19:55.762Z,6.10
2018-11-14T01:20:55.718Z,5.80
2018-11-14T01:21:55.804Z,5.70
2018-11-14T01:22:55.780Z,5.80
2018-11-14T01:24:16.799Z,5.50
2018-11-14T01:24:55.819Z,5.50
2018-11-14T01:25:55.818Z,5.40
2018-11-14T01:26:55.864Z,5.50
2018-11-14T01:27:55.899Z,5.40
2018-11-14T01:28:55.869Z,5.80
2018-11-14T01:30:16.935Z,5.60
2018-11-14T01:30:55.899Z,5.30
2018-11-14T01:31:55.936Z,5.30
2018-11-14T01:32:55.937Z,5.40
2018-11-14T01:33:55.971Z,5.90
2018-11-14T01:34:55.992Z,4.90
2018-11-14T01:36:17.019Z,5.60
2018-11-14T01:36:56.040Z,5.40
2018-11-14T01:37:56.025Z,5.60
2018-11-14T01:38:56.046Z,5.70
2018-11-14T01:39:56.253Z,5.50
2018-11-14T01:40:56.113Z,5.30
2018-11-14T01:42:17.146Z,5.30
2018-11-14T01:42:56.187Z,5.80
2018-11-14T01:43:56.188Z,5.80
2018-11-14T01:44:56.189Z,5.50
2018-11-14T01:45:56.198Z,5.50
2018-11-14T01:46:56.260Z,6.20
2018-11-14T01:48:17.246Z,5.20
2018-11-14T01:48:56.274Z,5.80
2018-11-14T01:49:56.299Z,5.50
2018-11-14T01:50:56.295Z,5.90
2018-11-14T01:51:56.320Z,5.60
2018-11-14T01:52:56.455Z,5.80
2018-11-14T01:54:17.361Z,5.50
2018-11-14T01:54:56.366Z,5.80
2018-11-14T01:55:56.390Z,5.50
2018-11-14T01:56:56.404Z,5.60
2018-11-14T01:57:56.412Z,5.40
2018-11-14T01:58:56.428Z,5.50
2018-11-14T02:00:17.448Z,5.20
2018-11-14T02:00:56.474Z,5.60
2018-11-14T02:01:56.534Z,5.20
2018-11-14T02:02:56.525Z,5.40
2018-11-14T02:03:56.518Z,5.50
2018-11-14T02:04:56.548Z,5.70
2018-11-14T02:06:17.576Z,6.00
2018-11-14T02:06:56.595Z,5.40
2018-11-14T02:07:56.607Z,5.50
2018-11-14T02:08:56.630Z,5.00
2018-11-14T02:09:56.639Z,6.00
2018-11-14T02:10:56.669Z,6.10
2018-11-14T02:12:17.692Z,5.30
2018-11-14T02:12:56.701Z,6.20
2018-11-14T02:13:56.724Z,5.40
2018-11-14T02:14:56.734Z,5.90
2018-11-14T02:15:56.823Z,5.70
2018-11-14T02:16:56.770Z,5.20
2018-11-14T02:18:17.804Z,6.70
2018-11-14T02:18:56.802Z,6.00
2018-11-14T02:19:56.830Z,5.70
2018-11-14T02:20:56.852Z,5.70
2018-11-14T02:21:56.869Z,5.80
2018-11-14T02:22:56.881Z,6.50
2018-11-14T02:24:17.920Z,5.80
2018-11-14T02:24:56.937Z,6.50
2018-11-14T02:25:56.958Z,6.70
2018-11-14T02:26:56.966Z,7.00
2018-11-14T02:27:56.992Z,6.50
2018-11-14T02:28:57.023Z,6.90
2018-11-14T02:30:18.056Z,6.70
2018-11-14T02:30:57.028Z,6.40
2018-11-14T02:31:57.064Z,6.90
2018-11-14T02:32:57.083Z,6.80
2018-11-14T02:33:57.099Z,6.80
2018-11-14T02:34:57.118Z,6.30
2018-11-14T02:36:18.133Z,6.50
2018-11-14T02:36:57.141Z,6.40
2018-11-14T02:37:57.143Z,6.00
2018-11-14T02:38:57.215Z,6.50
2018-11-14T02:39:57.205Z,6.00
2018-11-14T02:40:57.237Z,6.70
2018-11-14T02:42:18.260Z,6.30
2018-11-14T02:42:57.275Z,6.00
2018-11-14T02:43:57.284Z,6.20
2018-11-14T02:44:57.295Z,6.40
2018-11-14T02:45:57.343Z,6.30
2018-11-14T02:46:57.348Z,5.70
2018-11-14T02:48:18.403Z,6.10
2018-11-14T02:48:57.395Z,5.80
2018-11-14T02:49:57.438Z,6.00
2018-11-14T02:50:57.445Z,5.90
2018-11-14T02:51:57.523Z,6.00
2018-11-14T02:52:57.444Z,5.50
2018-11-14T02:54:18.478Z,5.90
2018-11-14T02:54:57.495Z,5.80
2018-11-14T02:55:57.506Z,5.30
2018-11-14T02:56:57.516Z,6.20
2018-11-14T02:57:57.550Z,5.90
2018-11-14T02:58:57.573Z,6.30
2018-11-14T03:00:18.589Z,5.50
2018-11-14T03:00:57.603Z,5.80
2018-11-14T03:01:57.594Z,6.30
2018-11-14T03:02:57.645Z,5.80
2018-11-14T03:03:57.633Z,5.80
2018-11-14T03:04:57.700Z,5.80
2018-11-14T03:06:18.699Z,6.20
2018-11-14T03:06:57.736Z,6.00
2018-11-14T03:07:57.722Z,5.90
2018-11-14T03:08:57.739Z,5.70
2018-11-14T03:09:57.768Z,5.50
2018-11-14T03:10:57.775Z,6.00
2018-11-14T03:12:18.890Z,5.60
2018-11-14T03:12:57.810Z,5.50
2018-11-14T03:13:57.857Z,5.70
2018-11-14T03:14:57.868Z,5.60
2018-11-14T03:15:57.873Z,5.40
2018-11-14T03:16:57.870Z,5.50
2018-11-14T03:18:18.916Z,5.50
2018-11-14T03:18:57.914Z,5.60
2018-11-14T03:19:57.919Z,5.20
2018-11-14T03:20:57.963Z,5.40
2018-11-14T03:21:58.006Z,5.10
2018-11-14T03:22:57.990Z,5.20
2018-11-14T03:24:19.087Z,5.40
2018-11-14T03:24:58.099Z,5.80
2018-11-14T03:25:58.086Z,5.00
2018-11-14T03:26:58.076Z,5.10
2018-11-14T03:27:58.117Z,5.40
2018-11-14T03:28:58.128Z,5.40
2018-11-14T03:30:19.146Z,5.30
2018-11-14T03:30:58.169Z,5.30
2018-11-14T03:31:58.190Z,5.10
2018-11-14T03:32:58.218Z,5.20
2018-11-14T03:33:58.227Z,5.00
2018-11-14T03:34:58.232Z,5.70
2018-11-14T03:36:19.293Z,5.10
2018-11-14T03:36:58.313Z,5.10
2018-11-14T03:37:58.352Z,5.60
2018-11-14T03:38:58.354Z,5.70
2018-11-14T03:39:58.322Z,5.30
2018-11-14T03:40:58.427Z,5.50
2018-11-14T03:42:19.388Z,5.90
2018-11-14T03:42:58.425Z,5.60
2018-11-14T03:43:58.394Z,5.30
2018-11-14T03:44:58.421Z,5.20
2018-11-14T03:45:58.438Z,5.50
2018-11-14T03:46:58.466Z,5.60
2018-11-14T03:48:19.497Z,5.40
2018-11-14T03:48:58.525Z,5.60
2018-11-14T03:49:58.526Z,5.10
2018-11-14T03:50:58.589Z,4.70
2018-11-14T03:51:58.543Z,5.30
2018-11-14T03:52:58.581Z,4.40
2018-11-14T03:54:19.574Z,4.70
2018-11-14T03:54:58.594Z,5.60
2018-11-14T03:55:58.628Z,5.20
2018-11-14T03:56:58.618Z,5.10
2018-11-14T03:57:58.646Z,5.10
2018-11-14T03:58:58.661Z,5.40
2018-11-14T04:00:19.686Z,5.10
2018-11-14T04:00:58.693Z,4.80
2018-11-14T04:01:58.723Z,4.80
2018-11-14T04:02:58.750Z,5.30
2018-11-14T04:03:58.767Z,4.90
2018-11-14T04:04:58.785Z,5.10
2018-11-14T04:06:19.813Z,4.80
2018-11-14T04:06:58.796Z,4.60
2018-11-14T04:07:58.823Z,5.20
2018-11-14T04:08:58.854Z,4.80
2018-11-14T04:09:58.877Z,5.60
2018-11-14T04:10:58.876Z,5.00
2018-11-14T04:12:19.920Z,4.70
2018-11-14T04:12:58.938Z,4.90
2018-11-14T04:13:58.979Z,5.30
2018-11-14T04:14:58.963Z,5.30
2018-11-14T04:15:58.965Z,5.80
2018-11-14T04:16:58.993Z,5.10
2018-11-14T04:18:20.043Z,5.20
2018-11-14T04:18:59.023Z,5.10
2018-11-14T04:19:59.051Z,5.30
2018-11-14T04:20:59.066Z,5.50
2018-11-14T04:21:59.083Z,5.70
2018-11-14T04:22:59.117Z,4.90
2018-11-14T04:24:20.126Z,4.90
2018-11-14T04:24:59.164Z,5.50
2018-11-14T04:25:59.183Z,5.20
2018-11-14T04:26:59.187Z,5.20
2018-11-14T04:27:59.200Z,5.50
2018-11-14T04:28:59.229Z,5.30
2018-11-14T04:30:20.267Z,5.30
2018-11-14T04:30:59.277Z,5.30
2018-11-14T04:31:59.296Z,4.80
2018-11-14T04:32:59.307Z,5.00
2018-11-14T04:33:59.308Z,5.50
2018-11-14T04:34:59.336Z,5.50
2018-11-14T04:36:20.401Z,5.30
2018-11-14T04:36:59.403Z,5.60
2018-11-14T04:37:59.394Z,5.70
2018-11-14T04:38:59.405Z,5.10
2018-11-14T04:39:59.483Z,4.90
2018-11-14T04:40:59.463Z,5.60
2018-11-14T04:42:20.543Z,5.80
2018-11-14T04:42:59.494Z,5.90
2018-11-14T04:43:59.523Z,5.30
2018-11-14T04:44:59.561Z,5.70
2018-11-14T04:45:59.552Z,5.40
2018-11-14T04:46:59.649Z,5.60
2018-11-14T04:48:20.622Z,5.50
2018-11-14T04:48:59.631Z,5.60
2018-11-14T04:49:59.683Z,5.90
2018-11-14T04:50:59.674Z,5.20
2018-11-14T04:51:59.682Z,5.80
2018-11-14T04:52:59.704Z,5.80
2018-11-14T04:54:20.742Z,5.90
2018-11-14T04:54:59.703Z,6.30
2018-11-14T04:55:59.790Z,6.60
2018-11-14T04:56:59.767Z,6.70
2018-11-14T04:57:59.786Z,7.00
2018-11-14T04:58:59.800Z,6.70
2018-11-14T05:00:20.870Z,7.50
2018-11-14T05:00:59.831Z,6.90
2018-11-14T05:01:59.880Z,7.50
2018-11-14T05:02:59.890Z,6.60
2018-11-14T05:03:59.901Z,6.80
2018-11-14T05:04:59.906Z,7.50
2018-11-14T05:06:20.942Z,6.20
2018-11-14T05:06:59.949Z,6.40
2018-11-14T05:07:59.958Z,6.30
2018-11-14T05:08:59.972Z,6.10
2018-11-14T05:09:59.986Z,21.40
2018-11-14T05:10:59.996Z,11.10
2018-11-14T05:12:21.054Z,12.90
2018-11-14T05:13:00.122Z,12.20
2018-11-14T05:14:00.062Z,17.90
2018-11-14T05:15:00.068Z,14.60
2018-11-14T05:16:00.127Z,9.80
2018-11-14T05:17:00.119Z,8.40
2018-11-14T05:18:21.135Z,9.20
2018-11-14T05:19:00.173Z,9.90
2018-11-14T05:20:00.180Z,9.40
2018-11-14T05:21:00.172Z,9.00
2018-11-14T05:22:00.193Z,8.40
2018-11-14T05:23:00.222Z,9.60
2018-11-14T05:24:21.253Z,9.70
2018-11-14T05:25:00.245Z,8.60
2018-11-14T05:26:00.290Z,9.70
2018-11-14T05:27:00.284Z,8.40
2018-11-14T05:28:00.323Z,7.30
2018-11-14T05:29:00.346Z,7.30
2018-11-14T05:30:21.369Z,7.90
2018-11-14T05:31:00.378Z,7.50
2018-11-14T05:32:00.455Z,8.30
2018-11-14T05:33:00.415Z,8.10
2018-11-14T05:34:00.427Z,7.50
2018-11-14T05:35:00.446Z,6.20
2018-11-14T05:36:21.473Z,5.90
2018-11-14T05:37:00.483Z,6.60
2018-11-14T05:38:00.496Z,7.00
2018-11-14T05:39:00.544Z,6.60
2018-11-14T05:40:00.529Z,6.20
2018-11-14T05:41:00.543Z,6.50
2018-11-14T05:42:21.636Z,6.80
2018-11-14T05:43:00.581Z,6.40
2018-11-14T05:44:00.608Z,8.50
2018-11-14T05:45:00.630Z,6.80
2018-11-14T05:46:00.653Z,6.00
2018-11-14T05:47:00.665Z,6.10
2018-11-14T05:48:21.750Z,5.60
2018-11-14T05:49:00.711Z,6.30
2018-11-14T05:50:00.708Z,6.00
2018-11-14T05:51:00.734Z,6.10
2018-11-14T05:52:00.766Z,7.60
2018-11-14T05:53:00.765Z,8.60
2018-11-14T05:54:21.886Z,7.40
2018-11-14T05:55:00.866Z,5.70
2018-11-14T05:56:00.847Z,5.80
2018-11-14T05:57:00.848Z,6.30
2018-11-14T05:58:00.865Z,5.60
2018-11-14T05:59:00.914Z,5.60
2018-11-14T06:00:21.898Z,5.00
2018-11-14T06:01:00.902Z,5.50
2018-11-14T06:02:00.992Z,5.40
2018-11-14T06:03:00.949Z,4.80
2018-11-14T06:04:00.963Z,5.40
2018-11-14T06:05:01.017Z,5.30
2018-11-14T06:06:22.019Z,5.10
2018-11-14T06:07:01.022Z,4.80
2018-11-14T06:08:01.025Z,5.30
2018-11-14T06:09:01.053Z,5.60
2018-11-14T06:10:01.060Z,5.60
2018-11-14T06:11:01.100Z,6.00
2018-11-14T06:12:22.121Z,5.20
2018-11-14T06:13:01.141Z,6.20
2018-11-14T06:14:01.150Z,6.50
2018-11-14T06:15:01.175Z,5.10
2018-11-14T06:16:01.200Z,6.00
2018-11-14T06:17:01.188Z,6.10
2018-11-14T06:18:22.227Z,5.70
2018-11-14T06:19:01.267Z,5.90
2018-11-14T06:20:01.273Z,6.80
2018-11-14T06:21:01.307Z,6.30
2018-11-14T06:22:01.356Z,5.50
2018-11-14T06:23:01.319Z,5.70
2018-11-14T06:24:22.335Z,5.60
2018-11-14T06:25:01.366Z,5.60
2018-11-14T06:26:01.386Z,6.00
2018-11-14T06:27:01.400Z,6.10
2018-11-14T06:28:01.391Z,5.80
2018-11-14T06:29:01.413Z,5.90
2018-11-14T06:30:22.467Z,5.60
2018-11-14T06:31:01.481Z,6.10
2018-11-14T06:32:01.478Z,6.20
2018-11-14T06:33:01.500Z,5.70
2018-11-14T06:34:01.550Z,5.30
2018-11-14T06:35:01.577Z,5.70
2018-11-14T06:36:22.564Z,5.50
2018-11-14T06:37:01.589Z,5.80
2018-11-14T06:38:01.605Z,5.10
2018-11-14T06:39:01.607Z,5.20
2018-11-14T06:40:01.631Z,5.60
2018-11-14T06:41:01.649Z,5.20
2018-11-14T06:42:22.690Z,5.20
2018-11-14T06:43:01.693Z,5.10
2018-11-14T06:44:01.713Z,5.10
2018-11-14T06:45:01.770Z,5.30
2018-11-14T06:46:01.726Z,5.10
2018-11-14T06:47:01.762Z,5.60
2018-11-14T06:48:22.803Z,5.60
2018-11-14T06:49:01.807Z,5.80
2018-11-14T06:50:01.906Z,5.10
2018-11-14T06:51:01.855Z,5.40
2018-11-14T06:52:01.848Z,5.90
2018-11-14T06:53:01.883Z,5.60
2018-11-14T06:54:22.971Z,5.60
2018-11-14T06:55:01.923Z,6.00
2018-11-14T06:56:01.923Z,5.90
2018-11-14T06:57:01.968Z,5.10
2018-11-14T06:58:02.012Z,5.60
2018-11-14T06:59:02.140Z,5.90
2018-11-14T07:00:22.998Z,5.80
2018-11-14T07:01:02.019Z,5.70
2018-11-14T07:02:02.036Z,5.90
2018-11-14T07:03:02.054Z,5.30
2018-11-14T07:04:02.063Z,6.00
2018-11-14T07:05:02.128Z,5.60
2018-11-14T07:06:23.110Z,5.90
2018-11-14T07:07:02.134Z,5.60
2018-11-14T07:08:02.180Z,5.60
2018-11-14T07:09:02.166Z,6.10
2018-11-14T07:10:02.192Z,5.60
2018-11-14T07:11:02.267Z,6.00
2018-11-14T07:12:23.237Z,6.10
2018-11-14T07:13:02.251Z,5.60
2018-11-14T07:14:02.251Z,6.20
2018-11-14T07:15:02.276Z,6.00
2018-11-14T07:16:02.294Z,6.10
2018-11-14T07:17:02.321Z,6.40
2018-11-14T07:18:23.348Z,5.90
2018-11-14T07:19:02.355Z,6.10
2018-11-14T07:20:02.373Z,5.90
2018-11-14T07:21:02.398Z,5.70
2018-11-14T07:22:02.408Z,6.00
2018-11-14T07:23:02.425Z,6.00
2018-11-14T07:24:23.470Z,6.30
2018-11-14T07:25:02.444Z,6.20
2018-11-14T07:26:02.524Z,6.60
2018-11-14T07:27:02.493Z,6.30
2018-11-14T07:28:02.517Z,6.00
2018-11-14T07:29:02.561Z,6.60
2018-11-14T07:30:23.624Z,5.80
2018-11-14T07:31:02.611Z,6.10
2018-11-14T07:32:02.612Z,6.40
2018-11-14T07:33:02.597Z,6.20
2018-11-14T07:34:02.654Z,6.30
2018-11-14T07:35:02.661Z,6.20
2018-11-14T07:36:23.686Z,6.00
2018-11-14T07:37:02.670Z,5.70
2018-11-14T07:38:02.701Z,6.10
2018-11-14T07:39:02.720Z,6.80
2018-11-14T07:40:02.742Z,6.00
2018-11-14T07:41:02.829Z,6.80
2018-11-14T07:42:23.789Z,6.40
2018-11-14T07:43:02.805Z,6.50
2018-11-14T07:44:02.926Z,6.60
2018-11-14T07:45:02.821Z,6.60
2018-11-14T07:46:02.859Z,6.70
2018-11-14T07:47:02.905Z,6.30
2018-11-14T07:48:23.927Z,7.40
2018-11-14T07:49:03.001Z,6.10
2018-11-14T07:50:02.965Z,7.00
2018-11-14T07:51:02.975Z,6.70
2018-11-14T07:52:02.977Z,6.80
2018-11-14T07:53:02.976Z,6.90
2018-11-14T07:54:24.025Z,6.60
2018-11-14T07:55:03.025Z,5.70
2018-11-14T07:56:03.002Z,6.70
2018-11-14T07:57:03.067Z,5.80
2018-11-14T07:58:03.098Z,6.10
2018-11-14T07:59:03.116Z,5.80
2018-11-14T08:00:24.184Z,5.80
2018-11-14T08:01:03.126Z,5.50
2018-11-14T08:02:03.213Z,6.10
2018-11-14T08:03:03.191Z,5.90
2018-11-14T08:04:03.205Z,6.10
2018-11-14T08:05:03.210Z,6.00
2018-11-14T08:06:24.241Z,5.60
2018-11-14T08:07:03.297Z,6.00
2018-11-14T08:08:03.374Z,6.40
2018-11-14T08:09:03.301Z,6.00
2018-11-14T08:10:03.301Z,6.00
2018-11-14T08:11:03.321Z,5.70
2018-11-14T08:12:24.350Z,5.80
2018-11-14T08:13:03.368Z,6.00
2018-11-14T08:14:03.376Z,5.70
2018-11-14T08:15:03.402Z,6.60
2018-11-14T08:16:03.412Z,5.90
2018-11-14T08:17:03.503Z,5.70
2018-11-14T08:18:24.470Z,6.00
2018-11-14T08:19:03.555Z,5.90
2018-11-14T08:20:03.500Z,6.00
2018-11-14T08:21:03.502Z,6.60
2018-11-14T08:22:03.539Z,6.30
2018-11-14T08:23:03.566Z,6.30
2018-11-14T08:24:24.604Z,6.90
2018-11-14T08:25:03.713Z,6.00
2018-11-14T08:26:03.599Z,5.80
2018-11-14T08:27:03.649Z,6.50
2018-11-14T08:28:03.694Z,6.50
2018-11-14T08:29:03.720Z,6.10
2018-11-14T08:30:24.746Z,6.70
2018-11-14T08:31:03.704Z,6.30
2018-11-14T08:32:03.726Z,6.30
2018-11-14T08:33:03.768Z,6.70
2018-11-14T08:34:03.754Z,6.90
2018-11-14T08:35:03.798Z,6.60
2018-11-14T08:36:24.839Z,7.40
2018-11-14T08:37:03.824Z,7.90
2018-11-14T08:38:03.823Z,7.40
2018-11-14T08:39:03.911Z,7.20
2018-11-14T08:40:03.908Z,7.00
2018-11-14T08:41:03.896Z,6.90
2018-11-14T08:42:24.936Z,6.30
2018-11-14T08:43:03.932Z,7.00
2018-11-14T08:44:03.957Z,6.80
2018-11-14T08:45:03.966Z,6.80
2018-11-14T08:46:03.978Z,6.60
2018-11-14T08:47:03.995Z,6.50
2018-11-14T08:48:25.026Z,6.90
2018-11-14T08:49:04.037Z,6.60
2018-11-14T08:50:04.088Z,5.90
2018-11-14T08:51:04.079Z,6.40
2018-11-14T08:52:04.086Z,7.00
2018-11-14T08:53:04.140Z,6.70
2018-11-14T08:54:25.140Z,6.70
2018-11-14T08:55:04.177Z,6.60
2018-11-14T08:56:04.168Z,6.20
2018-11-14T08:57:04.219Z,6.70
2018-11-14T08:58:04.291Z,6.50
2018-11-14T08:59:04.240Z,6.70
2018-11-14T09:00:25.276Z,6.60
2018-11-14T09:01:04.282Z,6.70
2018-11-14T09:02:04.294Z,7.80
2018-11-14T09:03:04.309Z,9.00
2018-11-14T09:04:04.399Z,8.10
2018-11-14T09:05:04.341Z,8.70
2018-11-14T09:06:25.476Z,9.10
2018-11-14T09:07:04.419Z,9.00
2018-11-14T09:08:04.424Z,8.70
2018-11-14T09:09:04.414Z,9.00
2018-11-14T09:10:04.448Z,9.20
2018-11-14T09:11:04.518Z,8.70
2018-11-14T09:12:25.595Z,8.70
2018-11-14T09:13:04.544Z,9.30
2018-11-14T09:14:04.521Z,9.00
2018-11-14T09:15:04.592Z,9.00
2018-11-14T09:16:04.576Z,9.20
2018-11-14T09:17:04.571Z,8.90
2018-11-14T09:18:25.634Z,9.60
2018-11-14T09:19:04.636Z,9.40
2018-11-14T09:20:04.645Z,8.50
2018-11-14T09:21:04.653Z,9.40
2018-11-14T09:22:04.659Z,9.90
2018-11-14T09:23:04.679Z,10.10
2018-11-14T09:24:25.715Z,10.70
2018-11-14T09:25:04.810Z,10.60
2018-11-14T09:26:04.800Z,10.50
2018-11-14T09:27:04.766Z,11.00
2018-11-14T09:28:04.779Z,10.20
2018-11-14T09:29:04.893Z,10.80
2018-11-14T09:30:25.822Z,10.40
2018-11-14T09:31:04.840Z,11.00
2018-11-14T09:32:04.917Z,11.00
2018-11-14T09:33:04.958Z,11.00
2018-11-14T09:34:04.902Z,10.90
2018-11-14T09:35:04.934Z,10.40
2018-11-14T09:36:25.987Z,10.60
2018-11-14T09:37:04.937Z,10.20
2018-11-14T09:38:04.978Z,10.20
2018-11-14T09:39:05.005Z,10.50
2018-11-14T09:40:05.008Z,10.10
2018-11-14T09:41:05.014Z,10.80
2018-11-14T09:42:26.054Z,10.70
2018-11-14T09:43:05.064Z,11.00
2018-11-14T09:44:05.087Z,10.90
2018-11-14T09:45:05.132Z,10.70
2018-11-14T09:46:05.163Z,10.70
2018-11-14T09:47:05.148Z,11.40
2018-11-14T09:48:26.211Z,11.20
2018-11-14T09:49:05.355Z,11.80
2018-11-14T09:50:05.242Z,12.00
2018-11-14T09:51:05.208Z,11.80
2018-11-14T09:52:05.286Z,12.10
2018-11-14T09:53:05.288Z,12.20
2018-11-14T09:54:26.305Z,12.40
2018-11-14T09:55:05.294Z,12.00
2018-11-14T09:56:05.318Z,12.60
2018-11-14T09:57:05.422Z,11.90
2018-11-14T09:58:05.367Z,12.30
2018-11-14T09:59:05.405Z,11.70
2018-11-14T10:00:26.404Z,12.70
2018-11-14T10:01:05.423Z,12.40
2018-11-14T10:02:05.442Z,12.60
2018-11-14T10:03:05.537Z,12.50
2018-11-14T10:04:05.472Z,12.20
2018-11-14T10:05:05.521Z,12.50
2018-11-14T10:06:26.525Z,12.60
2018-11-14T10:07:05.530Z,13.10
2018-11-14T10:08:05.619Z,12.90
2018-11-14T10:09:05.570Z,13.00
2018-11-14T10:10:05.635Z,13.50
2018-11-14T10:11:05.629Z,12.90
2018-11-14T10:12:26.650Z,12.50
2018-11-14T10:13:05.658Z,12.40
2018-11-14T10:14:05.739Z,13.10
2018-11-14T10:15:05.683Z,12.50
2018-11-14T10:16:05.693Z,12.70
2018-11-14T10:17:05.720Z,12.60
2018-11-14T10:18:26.830Z,12.80
2018-11-14T10:19:05.795Z,12.50
2018-11-14T10:20:05.791Z,11.90
2018-11-14T10:21:05.882Z,12.60
2018-11-14T10:22:05.822Z,12.00
2018-11-14T10:23:05.864Z,12.10
2018-11-14T10:24:26.895Z,12.60
2018-11-14T10:25:05.922Z,12.80
2018-11-14T10:26:05.956Z,12.90
2018-11-14T10:27:05.981Z,12.30
2018-11-14T10:28:06.029Z,11.50
2018-11-14T10:29:05.975Z,12.40
2018-11-14T10:30:27.057Z,13.10
2018-11-14T10:31:06.103Z,12.20
2018-11-14T10:32:06.049Z,11.70
2018-11-14T10:33:06.034Z,13.00
2018-11-14T10:34:06.052Z,12.30
2018-11-14T10:35:06.126Z,12.40
2018-11-14T10:36:27.127Z,12.30
2018-11-14T10:37:06.118Z,12.70
2018-11-14T10:38:06.161Z,12.80
2018-11-14T10:39:06.255Z,13.00
2018-11-14T10:40:06.248Z,13.30
2018-11-14T10:41:06.224Z,13.80
2018-11-14T10:42:27.252Z,13.60
2018-11-14T10:43:06.324Z,14.20
2018-11-14T10:44:06.252Z,13.60
2018-11-14T10:45:06.331Z,13.00
2018-11-14T10:46:06.310Z,13.30
2018-11-14T10:47:06.329Z,13.60
2018-11-14T10:48:27.366Z,14.30
2018-11-14T10:49:06.371Z,13.90
2018-11-14T10:50:06.377Z,13.50
2018-11-14T10:51:06.519Z,13.50
2018-11-14T10:52:06.400Z,13.80
2018-11-14T10:53:06.480Z,13.80
2018-11-14T10:54:27.511Z,14.30
2018-11-14T10:55:06.509Z,13.70
2018-11-14T10:56:06.498Z,14.30
2018-11-14T10:57:06.511Z,14.70
2018-11-14T10:58:06.588Z,14.10
2018-11-14T10:59:06.559Z,14.30
2018-11-14T11:00:27.662Z,14.20
2018-11-14T11:01:06.589Z,13.90
2018-11-14T11:02:06.637Z,14.30
2018-11-14T11:03:06.634Z,15.10
2018-11-14T11:04:06.664Z,14.80
2018-11-14T11:05:06.714Z,15.30
2018-11-14T11:06:27.706Z,14.80
2018-11-14T11:07:06.692Z,15.50
2018-11-14T11:08:06.830Z,15.20
2018-11-14T11:09:06.736Z,15.40
2018-11-14T11:10:06.736Z,15.20
2018-11-14T11:11:06.805Z,15.40
2018-11-14T11:12:27.818Z,14.40
2018-11-14T11:13:06.820Z,15.10
2018-11-14T11:14:06.828Z,15.40
2018-11-14T11:15:06.849Z,16.10
2018-11-14T11:16:06.914Z,14.50
2018-11-14T11:17:06.879Z,14.70
2018-11-14T11:18:27.935Z,15.40
2018-11-14T11:19:06.937Z,15.00
2018-11-14T11:20:06.994Z,15.00
2018-11-14T11:21:06.935Z,15.70
2018-11-14T11:22:07.003Z,16.00
2018-11-14T11:23:07.009Z,15.40
2018-11-14T11:24:28.030Z,15.50
2018-11-14T11:25:07.059Z,16.00
2018-11-14T11:26:07.141Z,15.50
2018-11-14T11:27:07.099Z,15.90
2018-11-14T11:28:07.136Z,15.50
2018-11-14T11:29:07.149Z,15.90
2018-11-14T11:30:28.210Z,15.70
2018-11-14T11:31:07.175Z,16.50
2018-11-14T11:32:07.299Z,17.10
2018-11-14T11:33:07.254Z,16.00
2018-11-14T11:34:07.242Z,15.80
2018-11-14T11:35:07.293Z,16.60
2018-11-14T11:36:28.347Z,16.50
2018-11-14T11:37:07.315Z,16.80
2018-11-14T11:38:07.365Z,16.50
2018-11-14T11:39:07.319Z,16.80
2018-11-14T11:40:07.331Z,16.70
2018-11-14T11:41:07.360Z,16.30
2018-11-14T11:42:28.453Z,16.60
2018-11-14T11:43:07.387Z,17.10
2018-11-14T11:44:07.407Z,16.50
2018-11-14T11:45:07.438Z,17.20
2018-11-14T11:46:07.446Z,16.80
2018-11-14T11:47:07.463Z,16.60
2018-11-14T11:48:28.506Z,16.60
2018-11-14T11:49:07.537Z,15.60
2018-11-14T11:50:07.552Z,16.60
2018-11-14T11:51:07.631Z,16.10
2018-11-14T11:52:07.563Z,17.10
2018-11-14T11:53:07.580Z,16.50
2018-11-14T11:54:28.624Z,16.00
2018-11-14T11:55:07.624Z,15.90
2018-11-14T11:56:07.707Z,17.30
2018-11-14T11:57:07.735Z,16.90
2018-11-14T11:58:07.710Z,17.20
2018-11-14T11:59:07.745Z,16.50
2018-11-14T12:00:28.954Z,17.40
2018-11-14T12:01:07.859Z,17.10
2018-11-14T12:02:07.873Z,16.50
2018-11-14T12:03:07.805Z,16.30
2018-11-14T12:04:07.839Z,16.80
2018-11-14T12:05:07.839Z,16.20
2018-11-14T12:06:29.008Z,15.60
2018-11-14T12:07:07.954Z,15.70
2018-11-14T12:08:07.895Z,15.70
2018-11-14T12:09:07.923Z,15.60
2018-11-14T12:10:07.943Z,16.00
2018-11-14T12:11:07.960Z,15.80
2018-11-14T12:12:28.979Z,16.60
2018-11-14T12:13:08.040Z,16.90
2018-11-14T12:14:08.012Z,16.70
2018-11-14T12:15:08.034Z,16.20
2018-11-14T12:16:08.036Z,15.80
2018-11-14T12:17:08.067Z,16.60
2018-11-14T12:18:29.092Z,17.30
2018-11-14T12:19:08.147Z,16.50
2018-11-14T12:20:08.124Z,16.90
2018-11-14T12:21:08.132Z,16.60
2018-11-14T12:22:08.140Z,16.30
2018-11-14T12:23:08.205Z,17.20
2018-11-14T12:24:29.225Z,16.60
2018-11-14T12:25:08.207Z,16.40
2018-11-14T12:26:08.221Z,15.70
2018-11-14T12:27:08.254Z,15.80
2018-11-14T12:28:08.267Z,15.70
2018-11-14T12:29:08.295Z,15.10
2018-11-14T12:30:29.432Z,15.10
2018-11-14T12:31:08.505Z,15.20
2018-11-14T12:32:08.344Z,15.10
2018-11-14T12:33:08.366Z,14.60
2018-11-14T12:34:08.374Z,15.00
2018-11-14T12:35:08.456Z,14.80
2018-11-14T12:36:29.439Z,14.80
2018-11-14T12:37:08.446Z,14.40
2018-11-14T12:38:08.472Z,14.60
2018-11-14T12:39:08.470Z,15.00
2018-11-14T12:40:08.521Z,13.70
2018-11-14T12:41:08.502Z,14.30
2018-11-14T12:42:29.576Z,14.80
2018-11-14T12:43:08.594Z,14.10
2018-11-14T12:44:08.606Z,14.60
2018-11-14T12:45:08.704Z,14.90
2018-11-14T12:46:08.623Z,14.20
2018-11-14T12:47:08.638Z,14.20
2018-11-14T12:48:29.704Z,13.60
2018-11-14T12:49:08.673Z,13.70
2018-11-14T12:50:08.696Z,14.40
2018-11-14T12:51:08.732Z,13.30
2018-11-14T12:52:08.741Z,13.80
2018-11-14T12:53:08.769Z,14.50
2018-11-14T12:54:29.803Z,14.70
2018-11-14T12:55:08.816Z,13.40
2018-11-14T12:56:08.853Z,14.30
2018-11-14T12:57:08.839Z,14.30
2018-11-14T12:58:08.948Z,13.30
2018-11-14T12:59:08.904Z,13.40
2018-11-14T13:00:29.915Z,13.90
2018-11-14T13:01:08.942Z,14.10
2018-11-14T13:02:09.037Z,13.90
2018-11-14T13:03:08.998Z,13.20
2018-11-14T13:04:08.997Z,14.10
2018-11-14T13:05:09.022Z,14.30
2018-11-14T13:06:30.060Z,13.20
2018-11-14T13:07:09.056Z,13.20
2018-11-14T13:08:09.042Z,12.50
2018-11-14T13:09:09.104Z,13.20
2018-11-14T13:10:09.085Z,13.20